sensor_id;sensor_type;location;lat;lon;timestamp;temperature;humidity
11569;DHT22;5840;46.894;15.542;2022-11-04T00:01:50;11.00;99.90
11569;DHT22;5840;46.894;15.542;2022-11-04T00:04:18;11.00;99.90
11569;DHT22;5840;46.894;15.542;2022-11-04T00:06:46;11.00;99.90
11569;DHT22;5840;46.894;15.542;2022-11-04T00:09:16;11.10;99.90
11569;DHT22;5840;46.894;15.542;2022-11-04T00:11:43;11.10;99.90
11569;DHT22;5840;46.894;15.542;2022-11-04T00:14:30;11.10;99.90
11569;DHT22;5840;46.894;15.542;2022-11-04T00:16:57;11.00;99.90
11569;DHT22;5840;46.894;15.542;2022-11-04T00:19:42;10.90;99.90
11569;DHT22;5840;46.894;15.542;2022-11-04T00:22:27;10.90;99.90
11569;DHT22;5840;46.894;15.542;2022-11-04T00:25:12;10.80;99.90
11569;DHT22;5840;46.894;15.542;2022-11-04T00:28:04;10.80;99.90
11569;DHT22;5840;46.894;15.542;2022-11-04T00:30:53;10.80;99.90
11569;DHT22;5840;46.894;15.542;2022-11-04T00:33:20;10.80;99.90
11569;DHT22;5840;46.894;15.542;2022-11-04T00:35:54;10.80;99.90
11569;DHT22;5840;46.894;15.542;2022-11-04T00:38:22;10.80;99.90
11569;DHT22;5840;46.894;15.542;2022-11-04T00:40:49;10.90;99.90
11569;DHT22;5840;46.894;15.542;2022-11-04T00:43:16;10.90;99.90
11569;DHT22;5840;46.894;15.542;2022-11-04T00:45:43;11.00;99.90
11569;DHT22;5840;46.894;15.542;2022-11-04T00:48:12;11.10;99.90
11569;DHT22;5840;46.894;15.542;2022-11-04T00:50:39;11.20;99.90
11569;DHT22;5840;46.894;15.542;2022-11-04T00:53:06;11.30;99.90
11569;DHT22;5840;46.894;15.542;2022-11-04T00:55:33;11.30;99.90
11569;DHT22;5840;46.894;15.542;2022-11-04T00:58:00;11.30;99.90
11569;DHT22;5840;46.894;15.542;2022-11-04T01:00:27;11.20;99.90
11569;DHT22;5840;46.894;15.542;2022-11-04T01:02:55;11.10;99.90
11569;DHT22;5840;46.894;15.542;2022-11-04T01:05:26;11.00;99.90
11569;DHT22;5840;46.894;15.542;2022-11-04T01:07:53;10.90;99.90
11569;DHT22;5840;46.894;15.542;2022-11-04T01:10:20;10.80;99.90
11569;DHT22;5840;46.894;15.542;2022-11-04T01:12:47;10.80;99.90
11569;DHT22;5840;46.894;15.542;2022-11-04T01:15:14;10.80;99.90
11569;DHT22;5840;46.894;15.542;2022-11-04T01:17:40;10.80;99.90
11569;DHT22;5840;46.894;15.542;2022-11-04T01:20:08;10.80;99.90
11569;DHT22;5840;46.894;15.542;2022-11-04T01:22:37;10.90;99.90
11569;DHT22;5840;46.894;15.542;2022-11-04T01:25:04;11.00;99.90
11569;DHT22;5840;46.894;15.542;2022-11-04T01:27:32;11.00;99.90
11569;DHT22;5840;46.894;15.542;2022-11-04T01:29:58;11.00;99.90
11569;DHT22;5840;46.894;15.542;2022-11-04T01:32:27;11.00;99.90
11569;DHT22;5840;46.894;15.542;2022-11-04T01:34:54;11.00;99.90
11569;DHT22;5840;46.894;15.542;2022-11-04T01:37:21;11.00;99.90
11569;DHT22;5840;46.894;15.542;2022-11-04T01:39:49;11.00;99.90
11569;DHT22;5840;46.894;15.542;2022-11-04T01:42:20;11.00;99.90
11569;DHT22;5840;46.894;15.542;2022-11-04T01:44:50;11.00;99.90
11569;DHT22;5840;46.894;15.542;2022-11-04T01:47:18;11.10;99.90
11569;DHT22;5840;46.894;15.542;2022-11-04T01:49:48;11.10;99.90
11569;DHT22;5840;46.894;15.542;2022-11-04T01:52:20;11.10;99.90
11569;DHT22;5840;46.894;15.542;2022-11-04T01:54:50;11.10;99.90
11569;DHT22;5840;46.894;15.542;2022-11-04T01:57:24;11.20;99.90
11569;DHT22;5840;46.894;15.542;2022-11-04T01:59:54;11.20;99.90
11569;DHT22;5840;46.894;15.542;2022-11-04T02:02:22;11.20;99.90
11569;DHT22;5840;46.894;15.542;2022-11-04T02:04:49;11.10;99.90
11569;DHT22;5840;46.894;15.542;2022-11-04T02:07:17;10.90;99.90
11569;DHT22;5840;46.894;15.542;2022-11-04T02:09:44;10.80;99.90
11569;DHT22;5840;46.894;15.542;2022-11-04T02:12:13;10.60;99.90
11569;DHT22;5840;46.894;15.542;2022-11-04T02:14:58;10.60;99.90
11569;DHT22;5840;46.894;15.542;2022-11-04T02:17:35;10.50;99.90
11569;DHT22;5840;46.894;15.542;2022-11-04T02:20:18;10.50;99.90
11569;DHT22;5840;46.894;15.542;2022-11-04T02:29:47;10.70;99.90
11569;DHT22;5840;46.894;15.542;2022-11-04T02:32:20;10.70;99.90
11569;DHT22;5840;46.894;15.542;2022-11-04T02:34:57;10.70;99.90
11569;DHT22;5840;46.894;15.542;2022-11-04T02:37:34;10.80;99.90
11569;DHT22;5840;46.894;15.542;2022-11-04T02:40:11;10.80;99.90
11569;DHT22;5840;46.894;15.542;2022-11-04T02:42:44;10.90;99.90
11569;DHT22;5840;46.894;15.542;2022-11-04T02:45:20;10.90;99.90
11569;DHT22;5840;46.894;15.542;2022-11-04T02:47:53;10.80;99.90
11569;DHT22;5840;46.894;15.542;2022-11-04T02:50:26;10.80;99.90
11569;DHT22;5840;46.894;15.542;2022-11-04T02:52:58;10.80;99.90
11569;DHT22;5840;46.894;15.542;2022-11-04T02:55:31;10.80;99.90
11569;DHT22;5840;46.894;15.542;2022-11-04T02:58:01;10.80;99.90
11569;DHT22;5840;46.894;15.542;2022-11-04T03:00:32;10.80;99.90
11569;DHT22;5840;46.894;15.542;2022-11-04T03:03:04;10.80;99.90
11569;DHT22;5840;46.894;15.542;2022-11-04T03:05:35;10.80;99.90
11569;DHT22;5840;46.894;15.542;2022-11-04T03:08:07;10.80;99.90
11569;DHT22;5840;46.894;15.542;2022-11-04T03:10:38;10.80;99.90
11569;DHT22;5840;46.894;15.542;2022-11-04T03:13:10;10.90;99.90
11569;DHT22;5840;46.894;15.542;2022-11-04T03:15:45;10.90;99.90
11569;DHT22;5840;46.894;15.542;2022-11-04T03:18:18;10.90;99.90
11569;DHT22;5840;46.894;15.542;2022-11-04T03:20:49;10.80;99.90
11569;DHT22;5840;46.894;15.542;2022-11-04T03:23:17;10.80;99.90
11569;DHT22;5840;46.894;15.542;2022-11-04T03:25:46;10.80;99.90
11569;DHT22;5840;46.894;15.542;2022-11-04T03:28:26;10.90;99.90
11569;DHT22;5840;46.894;15.542;2022-11-04T03:31:01;10.90;99.90
11569;DHT22;5840;46.894;15.542;2022-11-04T03:33:36;10.80;99.90
11569;DHT22;5840;46.894;15.542;2022-11-04T03:36:05;10.80;99.90
11569;DHT22;5840;46.894;15.542;2022-11-04T03:38:33;10.80;99.90
11569;DHT22;5840;46.894;15.542;2022-11-04T03:41:01;10.80;99.90
11569;DHT22;5840;46.894;15.542;2022-11-04T03:43:31;10.80;99.90
11569;DHT22;5840;46.894;15.542;2022-11-04T03:46:00;10.80;99.90
11569;DHT22;5840;46.894;15.542;2022-11-04T03:48:27;10.70;99.90
11569;DHT22;5840;46.894;15.542;2022-11-04T03:50:54;10.70;99.90
11569;DHT22;5840;46.894;15.542;2022-11-04T03:53:22;10.70;99.90
11569;DHT22;5840;46.894;15.542;2022-11-04T03:56:01;10.70;99.90
11569;DHT22;5840;46.894;15.542;2022-11-04T03:58:36;10.70;99.90
11569;DHT22;5840;46.894;15.542;2022-11-04T04:01:13;10.80;99.90
11569;DHT22;5840;46.894;15.542;2022-11-04T04:03:49;10.90;99.90
11569;DHT22;5840;46.894;15.542;2022-11-04T04:06:22;10.90;99.90
11569;DHT22;5840;46.894;15.542;2022-11-04T04:08:53;10.90;99.90
11569;DHT22;5840;46.894;15.542;2022-11-04T04:11:28;10.90;99.90
11569;DHT22;5840;46.894;15.542;2022-11-04T04:14:00;10.90;99.90
11569;DHT22;5840;46.894;15.542;2022-11-04T04:16:33;10.90;99.90
11569;DHT22;5840;46.894;15.542;2022-11-04T04:19:04;10.90;99.90
11569;DHT22;5840;46.894;15.542;2022-11-04T04:21:36;10.90;99.90
11569;DHT22;5840;46.894;15.542;2022-11-04T04:24:07;10.80;99.90
11569;DHT22;5840;46.894;15.542;2022-11-04T04:26:54;10.80;99.90
11569;DHT22;5840;46.894;15.542;2022-11-04T04:29:41;10.70;99.90
11569;DHT22;5840;46.894;15.542;2022-11-04T04:32:10;10.60;99.90
11569;DHT22;5840;46.894;15.542;2022-11-04T04:34:38;10.60;99.90
11569;DHT22;5840;46.894;15.542;2022-11-04T04:37:08;10.70;99.90
11569;DHT22;5840;46.894;15.542;2022-11-04T04:39:40;10.60;99.90
11569;DHT22;5840;46.894;15.542;2022-11-04T04:42:30;10.70;99.90
11569;DHT22;5840;46.894;15.542;2022-11-04T04:45:20;10.70;99.90
11569;DHT22;5840;46.894;15.542;2022-11-04T04:47:49;10.70;99.90
11569;DHT22;5840;46.894;15.542;2022-11-04T04:50:19;10.80;99.90
11569;DHT22;5840;46.894;15.542;2022-11-04T04:52:48;10.90;99.90
11569;DHT22;5840;46.894;15.542;2022-11-04T04:55:16;10.90;99.90
11569;DHT22;5840;46.894;15.542;2022-11-04T04:57:44;10.90;99.90
11569;DHT22;5840;46.894;15.542;2022-11-04T05:00:13;10.90;99.90
11569;DHT22;5840;46.894;15.542;2022-11-04T05:02:40;10.90;99.90
11569;DHT22;5840;46.894;15.542;2022-11-04T05:05:09;10.80;99.90
11569;DHT22;5840;46.894;15.542;2022-11-04T05:07:37;10.80;99.90
11569;DHT22;5840;46.894;15.542;2022-11-04T05:10:06;10.90;99.90
11569;DHT22;5840;46.894;15.542;2022-11-04T05:12:34;10.90;99.90
11569;DHT22;5840;46.894;15.542;2022-11-04T05:15:15;10.80;99.90
11569;DHT22;5840;46.894;15.542;2022-11-04T05:17:42;10.90;99.90
11569;DHT22;5840;46.894;15.542;2022-11-04T05:20:11;10.90;99.90
11569;DHT22;5840;46.894;15.542;2022-11-04T05:22:38;11.00;99.90
11569;DHT22;5840;46.894;15.542;2022-11-04T05:25:05;11.10;99.90
11569;DHT22;5840;46.894;15.542;2022-11-04T05:27:32;11.00;99.90
11569;DHT22;5840;46.894;15.542;2022-11-04T05:29:59;11.00;99.90
11569;DHT22;5840;46.894;15.542;2022-11-04T05:32:28;11.00;99.90
11569;DHT22;5840;46.894;15.542;2022-11-04T05:34:55;11.00;99.90
11569;DHT22;5840;46.894;15.542;2022-11-04T05:37:23;11.00;99.90
11569;DHT22;5840;46.894;15.542;2022-11-04T05:39:50;11.00;99.90
11569;DHT22;5840;46.894;15.542;2022-11-04T05:42:17;10.90;99.90
11569;DHT22;5840;46.894;15.542;2022-11-04T05:44:44;10.90;99.90
11569;DHT22;5840;46.894;15.542;2022-11-04T05:47:11;11.00;99.90
11569;DHT22;5840;46.894;15.542;2022-11-04T05:49:38;11.00;99.90
11569;DHT22;5840;46.894;15.542;2022-11-04T05:52:05;11.00;99.90
11569;DHT22;5840;46.894;15.542;2022-11-04T05:54:35;11.10;99.90
11569;DHT22;5840;46.894;15.542;2022-11-04T05:57:02;11.20;99.90
11569;DHT22;5840;46.894;15.542;2022-11-04T05:59:29;11.20;99.90
11569;DHT22;5840;46.894;15.542;2022-11-04T06:01:56;11.10;99.90
11569;DHT22;5840;46.894;15.542;2022-11-04T06:04:23;11.10;99.90
11569;DHT22;5840;46.894;15.542;2022-11-04T06:06:50;11.10;99.90
11569;DHT22;5840;46.894;15.542;2022-11-04T06:09:17;11.10;99.90
11569;DHT22;5840;46.894;15.542;2022-11-04T06:11:45;11.00;99.90
11569;DHT22;5840;46.894;15.542;2022-11-04T06:14:12;11.00;99.90
11569;DHT22;5840;46.894;15.542;2022-11-04T06:16:39;10.90;99.90
11569;DHT22;5840;46.894;15.542;2022-11-04T06:19:06;10.80;99.90
11569;DHT22;5840;46.894;15.542;2022-11-04T06:21:33;10.80;99.90
11569;DHT22;5840;46.894;15.542;2022-11-04T06:24:00;10.70;99.90
11569;DHT22;5840;46.894;15.542;2022-11-04T06:26:27;10.70;99.90
11569;DHT22;5840;46.894;15.542;2022-11-04T06:28:57;10.60;99.90
11569;DHT22;5840;46.894;15.542;2022-11-04T06:31:24;10.60;99.90
11569;DHT22;5840;46.894;15.542;2022-11-04T06:33:51;10.60;99.90
11569;DHT22;5840;46.894;15.542;2022-11-04T06:36:18;10.60;99.90
11569;DHT22;5840;46.894;15.542;2022-11-04T06:38:44;10.60;99.90
11569;DHT22;5840;46.894;15.542;2022-11-04T06:41:13;10.70;99.90
11569;DHT22;5840;46.894;15.542;2022-11-04T06:43:40;10.70;99.90
11569;DHT22;5840;46.894;15.542;2022-11-04T06:46:23;10.80;99.90
11569;DHT22;5840;46.894;15.542;2022-11-04T06:48:50;10.90;99.90
11569;DHT22;5840;46.894;15.542;2022-11-04T06:51:17;10.90;99.90
11569;DHT22;5840;46.894;15.542;2022-11-04T06:53:44;11.00;99.90
11569;DHT22;5840;46.894;15.542;2022-11-04T06:56:11;11.00;99.90
11569;DHT22;5840;46.894;15.542;2022-11-04T06:58:38;11.00;99.90
11569;DHT22;5840;46.894;15.542;2022-11-04T07:01:05;11.00;99.90
11569;DHT22;5840;46.894;15.542;2022-11-04T07:03:34;11.10;99.90
11569;DHT22;5840;46.894;15.542;2022-11-04T07:06:05;11.10;99.90
11569;DHT22;5840;46.894;15.542;2022-11-04T07:08:32;11.10;99.90
11569;DHT22;5840;46.894;15.542;2022-11-04T07:10:59;11.10;99.90
11569;DHT22;5840;46.894;15.542;2022-11-04T07:13:26;11.10;99.90
11569;DHT22;5840;46.894;15.542;2022-11-04T07:15:53;11.20;99.90
11569;DHT22;5840;46.894;15.542;2022-11-04T07:18:20;11.20;99.90
11569;DHT22;5840;46.894;15.542;2022-11-04T07:20:49;11.20;99.90
11569;DHT22;5840;46.894;15.542;2022-11-04T07:23:16;11.30;99.90
11569;DHT22;5840;46.894;15.542;2022-11-04T07:25:43;11.30;99.90
11569;DHT22;5840;46.894;15.542;2022-11-04T07:28:10;11.30;99.90
11569;DHT22;5840;46.894;15.542;2022-11-04T07:30:37;11.30;99.90
11569;DHT22;5840;46.894;15.542;2022-11-04T07:33:03;11.30;99.90
11569;DHT22;5840;46.894;15.542;2022-11-04T07:35:30;11.40;99.90
11569;DHT22;5840;46.894;15.542;2022-11-04T07:37:59;11.40;99.90
11569;DHT22;5840;46.894;15.542;2022-11-04T07:40:28;11.40;99.90
11569;DHT22;5840;46.894;15.542;2022-11-04T07:42:55;11.40;99.90
11569;DHT22;5840;46.894;15.542;2022-11-04T07:45:22;11.40;99.90
11569;DHT22;5840;46.894;15.542;2022-11-04T07:47:49;11.40;99.90
11569;DHT22;5840;46.894;15.542;2022-11-04T07:50:16;11.40;99.90
11569;DHT22;5840;46.894;15.542;2022-11-04T07:52:43;11.40;99.90
11569;DHT22;5840;46.894;15.542;2022-11-04T07:55:11;11.40;99.90
11569;DHT22;5840;46.894;15.542;2022-11-04T07:57:43;11.40;99.90
11569;DHT22;5840;46.894;15.542;2022-11-04T08:00:11;11.30;99.90
11569;DHT22;5840;46.894;15.542;2022-11-04T08:02:39;11.30;99.90
11569;DHT22;5840;46.894;15.542;2022-11-04T08:05:07;11.40;99.90
11569;DHT22;5840;46.894;15.542;2022-11-04T08:07:34;11.40;99.90
11569;DHT22;5840;46.894;15.542;2022-11-04T08:10:01;11.40;99.90
11569;DHT22;5840;46.894;15.542;2022-11-04T08:12:29;11.30;99.90
11569;DHT22;5840;46.894;15.542;2022-11-04T08:14:57;11.40;99.90
11569;DHT22;5840;46.894;15.542;2022-11-04T08:17:24;11.40;99.90
11569;DHT22;5840;46.894;15.542;2022-11-04T08:19:51;11.40;99.90
11569;DHT22;5840;46.894;15.542;2022-11-04T08:22:18;11.30;99.90
11569;DHT22;5840;46.894;15.542;2022-11-04T08:24:45;11.40;99.90
11569;DHT22;5840;46.894;15.542;2022-11-04T08:27:13;11.30;99.90
11569;DHT22;5840;46.894;15.542;2022-11-04T08:29:41;11.40;99.90
11569;DHT22;5840;46.894;15.542;2022-11-04T08:32:08;11.30;99.90
11569;DHT22;5840;46.894;15.542;2022-11-04T08:34:35;11.40;99.90
11569;DHT22;5840;46.894;15.542;2022-11-04T08:37:01;11.40;99.90
11569;DHT22;5840;46.894;15.542;2022-11-04T08:39:28;11.40;99.90
11569;DHT22;5840;46.894;15.542;2022-11-04T08:41:56;11.50;99.90
11569;DHT22;5840;46.894;15.542;2022-11-04T08:44:23;11.50;99.90
11569;DHT22;5840;46.894;15.542;2022-11-04T08:46:51;11.50;99.90
11569;DHT22;5840;46.894;15.542;2022-11-04T08:49:18;11.50;99.90
11569;DHT22;5840;46.894;15.542;2022-11-04T08:51:45;11.50;99.90
11569;DHT22;5840;46.894;15.542;2022-11-04T08:54:14;11.50;99.90
11569;DHT22;5840;46.894;15.542;2022-11-04T08:56:42;11.50;99.90
11569;DHT22;5840;46.894;15.542;2022-11-04T08:59:09;11.50;99.90
11569;DHT22;5840;46.894;15.542;2022-11-04T09:01:37;11.40;99.90
11569;DHT22;5840;46.894;15.542;2022-11-04T09:04:06;11.40;99.90
11569;DHT22;5840;46.894;15.542;2022-11-04T09:06:35;11.40;99.90
11569;DHT22;5840;46.894;15.542;2022-11-04T09:09:03;11.40;99.90
11569;DHT22;5840;46.894;15.542;2022-11-04T09:11:30;11.40;99.90
11569;DHT22;5840;46.894;15.542;2022-11-04T09:13:59;11.40;99.90
11569;DHT22;5840;46.894;15.542;2022-11-04T09:16:27;11.40;99.90
11569;DHT22;5840;46.894;15.542;2022-11-04T09:18:55;11.40;99.90
11569;DHT22;5840;46.894;15.542;2022-11-04T09:21:24;11.40;99.90
11569;DHT22;5840;46.894;15.542;2022-11-04T09:23:51;11.50;99.90
11569;DHT22;5840;46.894;15.542;2022-11-04T09:26:19;11.50;99.90
11569;DHT22;5840;46.894;15.542;2022-11-04T09:28:47;11.50;99.90
11569;DHT22;5840;46.894;15.542;2022-11-04T09:31:15;11.50;99.90
11569;DHT22;5840;46.894;15.542;2022-11-04T09:33:43;11.50;99.90
11569;DHT22;5840;46.894;15.542;2022-11-04T09:36:11;11.50;99.90
11569;DHT22;5840;46.894;15.542;2022-11-04T09:38:41;11.50;99.90
11569;DHT22;5840;46.894;15.542;2022-11-04T09:41:20;11.50;99.90
11569;DHT22;5840;46.894;15.542;2022-11-04T09:44:00;11.50;99.90
11569;DHT22;5840;46.894;15.542;2022-11-04T09:46:29;11.40;99.90
11569;DHT22;5840;46.894;15.542;2022-11-04T09:49:00;11.50;99.90
11569;DHT22;5840;46.894;15.542;2022-11-04T09:51:28;11.40;99.90
11569;DHT22;5840;46.894;15.542;2022-11-04T09:53:59;11.40;99.90
11569;DHT22;5840;46.894;15.542;2022-11-04T09:56:31;11.40;99.90
11569;DHT22;5840;46.894;15.542;2022-11-04T09:59:00;11.40;99.90
11569;DHT22;5840;46.894;15.542;2022-11-04T10:01:32;11.40;99.90
11569;DHT22;5840;46.894;15.542;2022-11-04T10:04:16;11.40;99.90
11569;DHT22;5840;46.894;15.542;2022-11-04T10:06:57;11.40;99.90
11569;DHT22;5840;46.894;15.542;2022-11-04T10:09:41;11.40;99.90
11569;DHT22;5840;46.894;15.542;2022-11-04T10:12:21;11.40;99.90
11569;DHT22;5840;46.894;15.542;2022-11-04T10:15:18;11.40;99.90
11569;DHT22;5840;46.894;15.542;2022-11-04T10:17:59;11.40;99.90
11569;DHT22;5840;46.894;15.542;2022-11-04T10:20:37;11.30;99.90
11569;DHT22;5840;46.894;15.542;2022-11-04T10:23:13;11.30;99.90
11569;DHT22;5840;46.894;15.542;2022-11-04T10:25:49;11.30;99.90
11569;DHT22;5840;46.894;15.542;2022-11-04T10:28:19;11.30;99.90
11569;DHT22;5840;46.894;15.542;2022-11-04T10:30:49;11.40;99.90
11569;DHT22;5840;46.894;15.542;2022-11-04T10:33:23;11.40;99.90
11569;DHT22;5840;46.894;15.542;2022-11-04T10:35:54;11.50;99.90
11569;DHT22;5840;46.894;15.542;2022-11-04T10:38:31;11.50;99.90
11569;DHT22;5840;46.894;15.542;2022-11-04T10:41:00;11.50;99.90
11569;DHT22;5840;46.894;15.542;2022-11-04T10:43:30;11.50;99.90
11569;DHT22;5840;46.894;15.542;2022-11-04T10:46:12;11.50;99.90
11569;DHT22;5840;46.894;15.542;2022-11-04T10:48:47;11.40;99.90
11569;DHT22;5840;46.894;15.542;2022-11-04T10:51:16;11.40;99.90
11569;DHT22;5840;46.894;15.542;2022-11-04T10:53:46;11.50;99.90
11569;DHT22;5840;46.894;15.542;2022-11-04T10:56:19;11.50;99.90
11569;DHT22;5840;46.894;15.542;2022-11-04T10:58:48;11.40;99.90
11569;DHT22;5840;46.894;15.542;2022-11-04T11:01:26;11.50;99.90
11569;DHT22;5840;46.894;15.542;2022-11-04T11:03:54;11.50;99.90
11569;DHT22;5840;46.894;15.542;2022-11-04T11:06:25;11.40;99.90
11569;DHT22;5840;46.894;15.542;2022-11-04T11:08:55;11.40;99.90
11569;DHT22;5840;46.894;15.542;2022-11-04T11:11:41;11.40;99.90
11569;DHT22;5840;46.894;15.542;2022-11-04T11:14:17;11.40;99.90
11569;DHT22;5840;46.894;15.542;2022-11-04T11:16:45;11.40;99.90
11569;DHT22;5840;46.894;15.542;2022-11-04T11:19:15;11.40;99.90
11569;DHT22;5840;46.894;15.542;2022-11-04T11:21:44;11.40;99.90
11569;DHT22;5840;46.894;15.542;2022-11-04T11:24:15;11.40;99.90
11569;DHT22;5840;46.894;15.542;2022-11-04T11:26:46;11.40;99.90
11569;DHT22;5840;46.894;15.542;2022-11-04T11:29:20;11.40;99.90
11569;DHT22;5840;46.894;15.542;2022-11-04T11:31:48;11.40;99.90
11569;DHT22;5840;46.894;15.542;2022-11-04T11:34:20;11.40;99.90
11569;DHT22;5840;46.894;15.542;2022-11-04T11:36:49;11.40;99.90
11569;DHT22;5840;46.894;15.542;2022-11-04T11:39:18;11.40;99.90
11569;DHT22;5840;46.894;15.542;2022-11-04T11:41:57;11.40;99.90
11569;DHT22;5840;46.894;15.542;2022-11-04T11:44:27;11.40;99.90
11569;DHT22;5840;46.894;15.542;2022-11-04T11:46:59;11.40;99.90
11569;DHT22;5840;46.894;15.542;2022-11-04T11:49:29;11.50;99.90
11569;DHT22;5840;46.894;15.542;2022-11-04T11:52:16;11.50;99.90
11569;DHT22;5840;46.894;15.542;2022-11-04T11:54:47;11.50;99.90
11569;DHT22;5840;46.894;15.542;2022-11-04T11:57:28;11.50;99.90
11569;DHT22;5840;46.894;15.542;2022-11-04T12:00:03;11.50;99.90
11569;DHT22;5840;46.894;15.542;2022-11-04T12:02:35;11.50;99.90
11569;DHT22;5840;46.894;15.542;2022-11-04T12:05:08;11.50;99.90
11569;DHT22;5840;46.894;15.542;2022-11-04T12:07:40;11.50;99.90
11569;DHT22;5840;46.894;15.542;2022-11-04T12:10:15;11.50;99.90
11569;DHT22;5840;46.894;15.542;2022-11-04T12:12:55;11.60;99.90
11569;DHT22;5840;46.894;15.542;2022-11-04T12:15:47;11.50;99.90
11569;DHT22;5840;46.894;15.542;2022-11-04T12:18:45;11.60;99.90
11569;DHT22;5840;46.894;15.542;2022-11-04T12:21:17;11.60;99.90
11569;DHT22;5840;46.894;15.542;2022-11-04T12:23:51;11.60;99.90
11569;DHT22;5840;46.894;15.542;2022-11-04T12:26:28;11.70;99.90
11569;DHT22;5840;46.894;15.542;2022-11-04T12:32:00;11.70;99.90
11569;DHT22;5840;46.894;15.542;2022-11-04T12:34:39;11.60;99.90
11569;DHT22;5840;46.894;15.542;2022-11-04T12:37:18;11.60;99.90
11569;DHT22;5840;46.894;15.542;2022-11-04T12:40:08;11.60;99.90
11569;DHT22;5840;46.894;15.542;2022-11-04T12:42:46;11.60;99.90
11569;DHT22;5840;46.894;15.542;2022-11-04T12:45:24;11.70;99.90
11569;DHT22;5840;46.894;15.542;2022-11-04T12:48:00;11.70;99.90
11569;DHT22;5840;46.894;15.542;2022-11-04T12:50:49;11.70;99.90
11569;DHT22;5840;46.894;15.542;2022-11-04T12:53:33;11.70;99.90
11569;DHT22;5840;46.894;15.542;2022-11-04T12:56:14;11.70;99.90
11569;DHT22;5840;46.894;15.542;2022-11-04T12:59:11;11.70;99.90
11569;DHT22;5840;46.894;15.542;2022-11-04T13:01:46;11.70;99.90
11569;DHT22;5840;46.894;15.542;2022-11-04T13:04:19;11.70;99.90
11569;DHT22;5840;46.894;15.542;2022-11-04T13:06:51;11.70;99.90
11569;DHT22;5840;46.894;15.542;2022-11-04T13:09:29;11.70;99.90
11569;DHT22;5840;46.894;15.542;2022-11-04T13:12:02;11.70;99.90
11569;DHT22;5840;46.894;15.542;2022-11-04T13:14:33;11.70;99.90
11569;DHT22;5840;46.894;15.542;2022-11-04T13:17:06;11.70;99.90
11569;DHT22;5840;46.894;15.542;2022-11-04T13:19:41;11.70;99.90
11569;DHT22;5840;46.894;15.542;2022-11-04T13:22:12;11.60;99.90
11569;DHT22;5840;46.894;15.542;2022-11-04T13:24:46;11.60;99.90
11569;DHT22;5840;46.894;15.542;2022-11-04T13:27:18;11.60;99.90
11569;DHT22;5840;46.894;15.542;2022-11-04T13:29:46;11.60;99.90
11569;DHT22;5840;46.894;15.542;2022-11-04T13:32:21;11.60;99.90
11569;DHT22;5840;46.894;15.542;2022-11-04T13:34:55;11.60;99.90
11569;DHT22;5840;46.894;15.542;2022-11-04T13:37:25;11.50;99.90
11569;DHT22;5840;46.894;15.542;2022-11-04T13:39:57;11.50;99.90
11569;DHT22;5840;46.894;15.542;2022-11-04T13:42:45;11.50;99.90
11569;DHT22;5840;46.894;15.542;2022-11-04T13:45:17;11.40;99.90
11569;DHT22;5840;46.894;15.542;2022-11-04T13:47:49;11.40;99.90
11569;DHT22;5840;46.894;15.542;2022-11-04T13:50:32;11.40;99.90
11569;DHT22;5840;46.894;15.542;2022-11-04T13:53:00;11.40;99.90
11569;DHT22;5840;46.894;15.542;2022-11-04T13:55:28;11.40;99.90
11569;DHT22;5840;46.894;15.542;2022-11-04T13:57:58;11.40;99.90
11569;DHT22;5840;46.894;15.542;2022-11-04T14:00:26;11.50;99.90
11569;DHT22;5840;46.894;15.542;2022-11-04T14:02:56;11.50;99.90
11569;DHT22;5840;46.894;15.542;2022-11-04T14:05:45;11.50;99.90
11569;DHT22;5840;46.894;15.542;2022-11-04T14:08:13;11.50;99.90
11569;DHT22;5840;46.894;15.542;2022-11-04T14:10:56;11.50;99.90
11569;DHT22;5840;46.894;15.542;2022-11-04T14:16:43;11.60;99.90
11569;DHT22;5840;46.894;15.542;2022-11-04T14:22:28;11.70;99.90
11569;DHT22;5840;46.894;15.542;2022-11-04T14:24:56;11.70;99.90
11569;DHT22;5840;46.894;15.542;2022-11-04T14:27:30;11.70;99.90
11569;DHT22;5840;46.894;15.542;2022-11-04T14:29:59;11.70;99.90
11569;DHT22;5840;46.894;15.542;2022-11-04T14:32:40;11.70;99.90
11569;DHT22;5840;46.894;15.542;2022-11-04T14:35:16;11.70;99.90
11569;DHT22;5840;46.894;15.542;2022-11-04T14:37:51;11.70;99.90
11569;DHT22;5840;46.894;15.542;2022-11-04T14:40:24;11.80;99.90
11569;DHT22;5840;46.894;15.542;2022-11-04T14:42:53;11.70;99.90
11569;DHT22;5840;46.894;15.542;2022-11-04T14:45:22;11.70;99.90
11569;DHT22;5840;46.894;15.542;2022-11-04T14:47:53;11.60;99.90
11569;DHT22;5840;46.894;15.542;2022-11-04T14:50:24;11.40;99.90
11569;DHT22;5840;46.894;15.542;2022-11-04T14:52:59;11.30;99.90
11569;DHT22;5840;46.894;15.542;2022-11-04T14:55:29;11.20;99.90
11569;DHT22;5840;46.894;15.542;2022-11-04T14:57:58;11.10;99.90
11569;DHT22;5840;46.894;15.542;2022-11-04T15:00:32;11.00;99.90
11569;DHT22;5840;46.894;15.542;2022-11-04T15:03:03;10.90;99.90
11569;DHT22;5840;46.894;15.542;2022-11-04T15:05:32;10.80;99.90
11569;DHT22;5840;46.894;15.542;2022-11-04T15:10:49;10.60;99.90
11569;DHT22;5840;46.894;15.542;2022-11-04T15:13:18;10.50;99.90
11569;DHT22;5840;46.894;15.542;2022-11-04T15:15:47;10.50;99.90
11569;DHT22;5840;46.894;15.542;2022-11-04T15:18:17;10.40;99.90
11569;DHT22;5840;46.894;15.542;2022-11-04T15:20:48;10.30;99.90
11569;DHT22;5840;46.894;15.542;2022-11-04T15:23:25;10.20;99.90
11569;DHT22;5840;46.894;15.542;2022-11-04T15:25:52;10.20;99.90
11569;DHT22;5840;46.894;15.542;2022-11-04T15:28:22;10.10;99.90
11569;DHT22;5840;46.894;15.542;2022-11-04T15:30:59;10.00;99.90
11569;DHT22;5840;46.894;15.542;2022-11-04T15:33:27;10.00;99.90
11569;DHT22;5840;46.894;15.542;2022-11-04T15:35:55;9.90;99.90
11569;DHT22;5840;46.894;15.542;2022-11-04T15:38:26;9.80;99.90
11569;DHT22;5840;46.894;15.542;2022-11-04T15:40:55;9.70;99.90
11569;DHT22;5840;46.894;15.542;2022-11-04T15:43:43;9.60;99.90
11569;DHT22;5840;46.894;15.542;2022-11-04T15:46:17;9.60;99.90
11569;DHT22;5840;46.894;15.542;2022-11-04T15:49:02;9.60;99.90
11569;DHT22;5840;46.894;15.542;2022-11-04T15:51:34;9.50;99.90
11569;DHT22;5840;46.894;15.542;2022-11-04T15:54:06;9.50;99.90
11569;DHT22;5840;46.894;15.542;2022-11-04T15:56:39;9.50;99.90
11569;DHT22;5840;46.894;15.542;2022-11-04T15:59:11;9.40;99.90
11569;DHT22;5840;46.894;15.542;2022-11-04T16:01:44;9.40;99.90
11569;DHT22;5840;46.894;15.542;2022-11-04T16:04:12;9.30;99.90
11569;DHT22;5840;46.894;15.542;2022-11-04T16:06:42;9.20;99.90
11569;DHT22;5840;46.894;15.542;2022-11-04T16:09:24;9.20;99.90
11569;DHT22;5840;46.894;15.542;2022-11-04T16:12:16;9.20;99.90
11569;DHT22;5840;46.894;15.542;2022-11-04T16:14:52;9.10;99.90
11569;DHT22;5840;46.894;15.542;2022-11-04T16:17:20;9.00;99.90
11569;DHT22;5840;46.894;15.542;2022-11-04T16:19:51;9.00;99.90